sensor_id;sensor_type;location;lat;lon;timestamp;P1;durP1;ratioP1;P2;durP2;ratioP2
55202;SDS011;41077;52.956;6.796;2023-06-14T00:01:50;4.00;;;2.08;;
55202;SDS011;41077;52.956;6.796;2023-06-14T00:04:16;9.65;;;2.53;;
55202;SDS011;41077;52.956;6.796;2023-06-14T00:06:42;10.38;;;2.47;;
55202;SDS011;41077;52.956;6.796;2023-06-14T00:09:10;5.82;;;2.42;;
55202;SDS011;41077;52.956;6.796;2023-06-14T00:11:38;4.63;;;2.30;;
55202;SDS011;41077;52.956;6.796;2023-06-14T00:14:04;11.52;;;2.30;;
55202;SDS011;41077;52.956;6.796;2023-06-14T00:16:30;5.63;;;2.38;;
55202;SDS011;41077;52.956;6.796;2023-06-14T00:18:58;8.43;;;2.20;;
55202;SDS011;41077;52.956;6.796;2023-06-14T00:21:25;6.80;;;2.35;;
55202;SDS011;41077;52.956;6.796;2023-06-14T00:23:53;6.60;;;2.30;;
55202;SDS011;41077;52.956;6.796;2023-06-14T00:26:20;6.13;;;2.40;;
55202;SDS011;41077;52.956;6.796;2023-06-14T00:28:46;10.23;;;2.63;;
55202;SDS011;41077;52.956;6.796;2023-06-14T00:31:12;10.95;;;2.20;;
55202;SDS011;41077;52.956;6.796;2023-06-14T00:33:38;6.88;;;2.97;;
55202;SDS011;41077;52.956;6.796;2023-06-14T00:36:04;5.82;;;2.53;;
55202;SDS011;41077;52.956;6.796;2023-06-14T00:38:30;4.40;;;2.13;;
55202;SDS011;41077;52.956;6.796;2023-06-14T00:40:56;4.53;;;2.50;;
55202;SDS011;41077;52.956;6.796;2023-06-14T00:43:22;3.83;;;2.25;;
55202;SDS011;41077;52.956;6.796;2023-06-14T00:45:48;6.15;;;3.35;;
55202;SDS011;41077;52.956;6.796;2023-06-14T00:48:16;3.67;;;2.40;;
55202;SDS011;41077;52.956;6.796;2023-06-14T00:50:42;6.63;;;2.35;;
55202;SDS011;41077;52.956;6.796;2023-06-14T00:53:11;5.22;;;2.17;;
55202;SDS011;41077;52.956;6.796;2023-06-14T00:55:37;8.32;;;2.53;;
55202;SDS011;41077;52.956;6.796;2023-06-14T00:58:03;5.22;;;2.28;;
55202;SDS011;41077;52.956;6.796;2023-06-14T01:00:29;5.97;;;2.13;;
55202;SDS011;41077;52.956;6.796;2023-06-14T01:02:55;7.75;;;2.53;;
55202;SDS011;41077;52.956;6.796;2023-06-14T01:05:21;5.45;;;2.33;;
55202;SDS011;41077;52.956;6.796;2023-06-14T01:13:32;6.78;;;2.78;;
55202;SDS011;41077;52.956;6.796;2023-06-14T01:15:59;5.82;;;2.38;;
55202;SDS011;41077;52.956;6.796;2023-06-14T01:18:25;6.70;;;3.47;;
55202;SDS011;41077;52.956;6.796;2023-06-14T01:20:54;6.68;;;2.83;;
55202;SDS011;41077;52.956;6.796;2023-06-14T01:23:21;4.15;;;2.60;;
55202;SDS011;41077;52.956;6.796;2023-06-14T01:25:48;7.07;;;2.58;;
55202;SDS011;41077;52.956;6.796;2023-06-14T01:28:17;4.60;;;2.33;;
55202;SDS011;41077;52.956;6.796;2023-06-14T01:30:44;6.15;;;2.17;;
55202;SDS011;41077;52.956;6.796;2023-06-14T01:33:16;11.95;;;2.90;;
55202;SDS011;41077;52.956;6.796;2023-06-14T01:35:44;6.00;;;2.42;;
55202;SDS011;41077;52.956;6.796;2023-06-14T01:38:10;8.05;;;2.33;;
55202;SDS011;41077;52.956;6.796;2023-06-14T01:40:38;4.70;;;2.20;;
55202;SDS011;41077;52.956;6.796;2023-06-14T01:43:04;4.00;;;2.30;;
55202;SDS011;41077;52.956;6.796;2023-06-14T01:45:31;4.30;;;2.03;;
55202;SDS011;41077;52.956;6.796;2023-06-14T01:47:58;7.05;;;2.13;;
55202;SDS011;41077;52.956;6.796;2023-06-14T01:50:28;5.22;;;2.38;;
55202;SDS011;41077;52.956;6.796;2023-06-14T01:52:54;5.68;;;2.35;;
55202;SDS011;41077;52.956;6.796;2023-06-14T01:55:20;3.45;;;2.08;;
55202;SDS011;41077;52.956;6.796;2023-06-14T01:57:47;6.85;;;2.50;;
55202;SDS011;41077;52.956;6.796;2023-06-14T02:00:13;4.60;;;2.10;;
55202;SDS011;41077;52.956;6.796;2023-06-14T02:02:40;6.55;;;2.42;;
55202;SDS011;41077;52.956;6.796;2023-06-14T02:05:06;7.22;;;2.97;;
55202;SDS011;41077;52.956;6.796;2023-06-14T02:07:34;3.65;;;2.05;;
55202;SDS011;41077;52.956;6.796;2023-06-14T02:10:00;3.13;;;2.40;;
55202;SDS011;41077;52.956;6.796;2023-06-14T02:12:26;4.60;;;2.38;;
55202;SDS011;41077;52.956;6.796;2023-06-14T02:14:52;7.95;;;2.80;;
55202;SDS011;41077;52.956;6.796;2023-06-14T02:17:19;7.97;;;2.38;;
55202;SDS011;41077;52.956;6.796;2023-06-14T02:19:45;6.60;;;2.95;;
55202;SDS011;41077;52.956;6.796;2023-06-14T02:22:11;4.05;;;2.22;;
55202;SDS011;41077;52.956;6.796;2023-06-14T02:24:39;17.55;;;3.47;;
55202;SDS011;41077;52.956;6.796;2023-06-14T02:27:06;5.70;;;2.63;;
55202;SDS011;41077;52.956;6.796;2023-06-14T02:29:32;4.05;;;2.50;;
55202;SDS011;41077;52.956;6.796;2023-06-14T02:31:58;5.75;;;2.53;;
55202;SDS011;41077;52.956;6.796;2023-06-14T02:34:24;4.68;;;2.63;;
55202;SDS011;41077;52.956;6.796;2023-06-14T02:36:50;5.53;;;2.45;;
55202;SDS011;41077;52.956;6.796;2023-06-14T02:39:17;4.32;;;2.42;;
55202;SDS011;41077;52.956;6.796;2023-06-14T02:41:46;4.38;;;2.90;;
55202;SDS011;41077;52.956;6.796;2023-06-14T02:44:13;6.00;;;2.92;;
55202;SDS011;41077;52.956;6.796;2023-06-14T02:46:39;6.00;;;2.88;;
55202;SDS011;41077;52.956;6.796;2023-06-14T02:49:05;8.75;;;2.90;;
55202;SDS011;41077;52.956;6.796;2023-06-14T02:51:31;5.65;;;2.75;;
55202;SDS011;41077;52.956;6.796;2023-06-14T02:53:57;5.68;;;2.83;;
55202;SDS011;41077;52.956;6.796;2023-06-14T02:56:23;5.78;;;3.00;;
55202;SDS011;41077;52.956;6.796;2023-06-14T02:58:51;6.38;;;2.80;;
55202;SDS011;41077;52.956;6.796;2023-06-14T03:01:18;4.45;;;3.03;;
55202;SDS011;41077;52.956;6.796;2023-06-14T03:03:45;9.38;;;3.13;;
55202;SDS011;41077;52.956;6.796;2023-06-14T03:06:11;5.45;;;2.85;;
55202;SDS011;41077;52.956;6.796;2023-06-14T03:08:39;6.20;;;2.70;;
55202;SDS011;41077;52.956;6.796;2023-06-14T03:11:06;4.68;;;3.00;;
55202;SDS011;41077;52.956;6.796;2023-06-14T03:13:36;4.38;;;3.03;;
55202;SDS011;41077;52.956;6.796;2023-06-14T03:16:03;6.82;;;3.00;;
55202;SDS011;41077;52.956;6.796;2023-06-14T03:18:30;5.93;;;3.42;;
55202;SDS011;41077;52.956;6.796;2023-06-14T03:21:00;6.57;;;2.60;;
55202;SDS011;41077;52.956;6.796;2023-06-14T03:23:26;10.57;;;3.03;;
55202;SDS011;41077;52.956;6.796;2023-06-14T03:25:52;6.32;;;2.95;;
55202;SDS011;41077;52.956;6.796;2023-06-14T03:28:18;5.30;;;3.30;;
55202;SDS011;41077;52.956;6.796;2023-06-14T03:30:45;4.93;;;3.00;;
55202;SDS011;41077;52.956;6.796;2023-06-14T03:33:11;5.13;;;2.85;;
55202;SDS011;41077;52.956;6.796;2023-06-14T03:35:37;8.50;;;3.10;;
55202;SDS011;41077;52.956;6.796;2023-06-14T03:38:03;7.10;;;3.38;;
55202;SDS011;41077;52.956;6.796;2023-06-14T03:40:29;5.63;;;2.95;;
55202;SDS011;41077;52.956;6.796;2023-06-14T03:42:56;4.75;;;2.78;;
55202;SDS011;41077;52.956;6.796;2023-06-14T03:45:22;4.78;;;2.50;;
55202;SDS011;41077;52.956;6.796;2023-06-14T03:47:48;9.00;;;3.00;;
55202;SDS011;41077;52.956;6.796;2023-06-14T03:50:15;4.47;;;2.65;;
55202;SDS011;41077;52.956;6.796;2023-06-14T03:52:41;6.20;;;2.80;;
55202;SDS011;41077;52.956;6.796;2023-06-14T03:55:08;6.88;;;3.38;;
55202;SDS011;41077;52.956;6.796;2023-06-14T03:57:35;4.53;;;2.80;;
55202;SDS011;41077;52.956;6.796;2023-06-14T04:00:01;6.28;;;3.58;;
55202;SDS011;41077;52.956;6.796;2023-06-14T04:02:30;4.22;;;2.85;;
55202;SDS011;41077;52.956;6.796;2023-06-14T04:04:56;9.38;;;3.17;;
55202;SDS011;41077;52.956;6.796;2023-06-14T04:07:22;5.70;;;3.00;;
55202;SDS011;41077;52.956;6.796;2023-06-14T04:09:50;6.50;;;3.90;;
55202;SDS011;41077;52.956;6.796;2023-06-14T04:12:16;6.93;;;2.72;;
55202;SDS011;41077;52.956;6.796;2023-06-14T04:14:42;6.72;;;3.03;;
55202;SDS011;41077;52.956;6.796;2023-06-14T04:17:08;4.18;;;2.88;;
55202;SDS011;41077;52.956;6.796;2023-06-14T04:19:34;6.78;;;3.17;;
55202;SDS011;41077;52.956;6.796;2023-06-14T04:22:01;4.72;;;2.88;;
55202;SDS011;41077;52.956;6.796;2023-06-14T04:24:27;6.22;;;3.25;;
55202;SDS011;41077;52.956;6.796;2023-06-14T04:26:59;6.53;;;3.55;;
55202;SDS011;41077;52.956;6.796;2023-06-14T04:29:28;9.40;;;3.17;;
55202;SDS011;41077;52.956;6.796;2023-06-14T04:31:54;12.45;;;3.63;;
55202;SDS011;41077;52.956;6.796;2023-06-14T04:34:27;5.80;;;3.20;;
55202;SDS011;41077;52.956;6.796;2023-06-14T04:36:57;5.00;;;3.10;;
55202;SDS011;41077;52.956;6.796;2023-06-14T04:39:24;7.80;;;3.47;;
55202;SDS011;41077;52.956;6.796;2023-06-14T04:41:51;4.60;;;3.20;;
55202;SDS011;41077;52.956;6.796;2023-06-14T04:44:21;9.13;;;3.17;;
55202;SDS011;41077;52.956;6.796;2023-06-14T04:46:49;5.18;;;3.33;;
55202;SDS011;41077;52.956;6.796;2023-06-14T04:49:15;4.55;;;3.47;;
55202;SDS011;41077;52.956;6.796;2023-06-14T04:51:42;6.25;;;3.58;;
55202;SDS011;41077;52.956;6.796;2023-06-14T04:54:09;9.32;;;3.63;;
55202;SDS011;41077;52.956;6.796;2023-06-14T04:56:39;7.88;;;3.85;;
55202;SDS011;41077;52.956;6.796;2023-06-14T04:59:05;6.60;;;3.95;;
55202;SDS011;41077;52.956;6.796;2023-06-14T05:01:31;5.75;;;3.42;;
55202;SDS011;41077;52.956;6.796;2023-06-14T05:03:58;6.95;;;3.60;;
55202;SDS011;41077;52.956;6.796;2023-06-14T05:06:25;5.75;;;3.30;;
55202;SDS011;41077;52.956;6.796;2023-06-14T05:08:54;5.70;;;3.28;;
55202;SDS011;41077;52.956;6.796;2023-06-14T05:11:20;7.72;;;3.60;;
55202;SDS011;41077;52.956;6.796;2023-06-14T05:13:49;5.90;;;3.80;;
55202;SDS011;41077;52.956;6.796;2023-06-14T05:16:16;8.23;;;3.42;;
55202;SDS011;41077;52.956;6.796;2023-06-14T05:18:44;7.00;;;3.50;;
55202;SDS011;41077;52.956;6.796;2023-06-14T05:21:12;4.80;;;3.50;;
55202;SDS011;41077;52.956;6.796;2023-06-14T05:23:42;10.02;;;3.90;;
55202;SDS011;41077;52.956;6.796;2023-06-14T05:26:09;7.15;;;3.00;;
55202;SDS011;41077;52.956;6.796;2023-06-14T05:28:35;6.88;;;3.55;;
55202;SDS011;41077;52.956;6.796;2023-06-14T05:31:02;7.15;;;3.70;;
55202;SDS011;41077;52.956;6.796;2023-06-14T05:33:28;9.23;;;3.78;;
55202;SDS011;41077;52.956;6.796;2023-06-14T05:35:54;5.97;;;4.05;;
55202;SDS011;41077;52.956;6.796;2023-06-14T05:38:20;7.53;;;3.75;;
55202;SDS011;41077;52.956;6.796;2023-06-14T05:40:47;8.05;;;3.75;;
55202;SDS011;41077;52.956;6.796;2023-06-14T05:43:13;7.47;;;3.60;;
55202;SDS011;41077;52.956;6.796;2023-06-14T05:45:39;9.45;;;4.38;;
55202;SDS011;41077;52.956;6.796;2023-06-14T05:48:05;6.45;;;3.55;;
55202;SDS011;41077;52.956;6.796;2023-06-14T05:50:31;15.30;;;4.18;;
55202;SDS011;41077;52.956;6.796;2023-06-14T05:52:57;7.22;;;3.95;;
55202;SDS011;41077;52.956;6.796;2023-06-14T05:55:23;7.25;;;3.40;;
55202;SDS011;41077;52.956;6.796;2023-06-14T05:57:50;8.27;;;3.75;;
55202;SDS011;41077;52.956;6.796;2023-06-14T06:00:17;7.45;;;3.80;;
55202;SDS011;41077;52.956;6.796;2023-06-14T06:02:44;6.72;;;3.92;;
55202;SDS011;41077;52.956;6.796;2023-06-14T06:05:11;12.00;;;4.07;;
55202;SDS011;41077;52.956;6.796;2023-06-14T06:07:37;5.10;;;3.53;;
55202;SDS011;41077;52.956;6.796;2023-06-14T06:10:09;8.20;;;4.05;;
55202;SDS011;41077;52.956;6.796;2023-06-14T06:12:36;7.75;;;3.70;;
55202;SDS011;41077;52.956;6.796;2023-06-14T06:15:02;10.45;;;4.03;;
55202;SDS011;41077;52.956;6.796;2023-06-14T06:17:28;7.35;;;3.60;;
55202;SDS011;41077;52.956;6.796;2023-06-14T06:19:54;6.68;;;3.53;;
55202;SDS011;41077;52.956;6.796;2023-06-14T06:22:20;5.55;;;3.40;;
55202;SDS011;41077;52.956;6.796;2023-06-14T06:24:46;5.93;;;3.28;;
55202;SDS011;41077;52.956;6.796;2023-06-14T06:27:12;6.65;;;3.58;;
55202;SDS011;41077;52.956;6.796;2023-06-14T06:29:39;2.65;;;2.42;;
55202;SDS011;41077;52.956;6.796;2023-06-14T06:32:05;6.38;;;2.90;;
55202;SDS011;41077;52.956;6.796;2023-06-14T06:34:31;6.90;;;3.08;;
55202;SDS011;41077;52.956;6.796;2023-06-14T06:36:57;6.47;;;3.22;;
55202;SDS011;41077;52.956;6.796;2023-06-14T06:39:23;6.13;;;2.85;;
55202;SDS011;41077;52.956;6.796;2023-06-14T06:41:50;6.68;;;3.28;;
55202;SDS011;41077;52.956;6.796;2023-06-14T06:44:16;7.82;;;2.60;;
55202;SDS011;41077;52.956;6.796;2023-06-14T06:46:43;2.90;;;2.40;;
55202;SDS011;41077;52.956;6.796;2023-06-14T06:49:09;5.82;;;2.90;;
55202;SDS011;41077;52.956;6.796;2023-06-14T06:51:37;3.25;;;2.45;;
55202;SDS011;41077;52.956;6.796;2023-06-14T06:54:03;3.95;;;2.35;;
55202;SDS011;41077;52.956;6.796;2023-06-14T06:56:31;8.32;;;3.00;;
55202;SDS011;41077;52.956;6.796;2023-06-14T06:58:57;6.82;;;2.80;;
55202;SDS011;41077;52.956;6.796;2023-06-14T07:01:23;4.07;;;2.58;;
55202;SDS011;41077;52.956;6.796;2023-06-14T07:03:49;9.77;;;2.53;;
55202;SDS011;41077;52.956;6.796;2023-06-14T07:06:15;7.85;;;2.60;;
55202;SDS011;41077;52.956;6.796;2023-06-14T07:08:43;5.78;;;2.53;;
55202;SDS011;41077;52.956;6.796;2023-06-14T07:11:10;11.13;;;3.28;;
55202;SDS011;41077;52.956;6.796;2023-06-14T07:13:36;9.85;;;2.70;;
55202;SDS011;41077;52.956;6.796;2023-06-14T07:16:03;10.20;;;2.72;;
55202;SDS011;41077;52.956;6.796;2023-06-14T07:18:30;4.78;;;2.60;;
55202;SDS011;41077;52.956;6.796;2023-06-14T07:20:56;8.65;;;3.47;;
55202;SDS011;41077;52.956;6.796;2023-06-14T07:23:23;3.75;;;2.50;;
55202;SDS011;41077;52.956;6.796;2023-06-14T07:25:49;5.20;;;2.47;;
55202;SDS011;41077;52.956;6.796;2023-06-14T07:28:16;4.90;;;2.33;;
55202;SDS011;41077;52.956;6.796;2023-06-14T07:30:42;6.95;;;2.42;;
55202;SDS011;41077;52.956;6.796;2023-06-14T07:33:08;5.97;;;2.78;;
55202;SDS011;41077;52.956;6.796;2023-06-14T07:35:35;9.23;;;2.63;;
55202;SDS011;41077;52.956;6.796;2023-06-14T07:38:01;6.35;;;2.65;;
55202;SDS011;41077;52.956;6.796;2023-06-14T07:40:26;10.15;;;2.72;;
55202;SDS011;41077;52.956;6.796;2023-06-14T07:42:52;7.13;;;2.65;;
55202;SDS011;41077;52.956;6.796;2023-06-14T07:45:19;4.80;;;2.67;;
55202;SDS011;41077;52.956;6.796;2023-06-14T07:47:45;6.47;;;2.25;;
55202;SDS011;41077;52.956;6.796;2023-06-14T07:50:11;6.72;;;2.17;;
55202;SDS011;41077;52.956;6.796;2023-06-14T07:52:38;6.65;;;2.28;;
55202;SDS011;41077;52.956;6.796;2023-06-14T07:55:05;6.70;;;2.75;;
55202;SDS011;41077;52.956;6.796;2023-06-14T07:57:31;7.55;;;2.45;;
55202;SDS011;41077;52.956;6.796;2023-06-14T07:59:56;5.68;;;2.70;;
55202;SDS011;41077;52.956;6.796;2023-06-14T08:02:22;5.03;;;2.78;;
55202;SDS011;41077;52.956;6.796;2023-06-14T08:04:49;5.95;;;2.38;;
55202;SDS011;41077;52.956;6.796;2023-06-14T08:07:14;5.63;;;2.13;;
55202;SDS011;41077;52.956;6.796;2023-06-14T08:09:40;10.60;;;3.13;;
55202;SDS011;41077;52.956;6.796;2023-06-14T08:12:06;4.47;;;2.08;;
55202;SDS011;41077;52.956;6.796;2023-06-14T08:14:35;3.97;;;2.28;;
55202;SDS011;41077;52.956;6.796;2023-06-14T08:17:01;14.82;;;2.58;;
55202;SDS011;41077;52.956;6.796;2023-06-14T08:19:27;6.20;;;2.38;;
55202;SDS011;41077;52.956;6.796;2023-06-14T08:21:53;5.50;;;2.88;;
55202;SDS011;41077;52.956;6.796;2023-06-14T08:24:23;5.47;;;2.50;;
55202;SDS011;41077;52.956;6.796;2023-06-14T08:26:49;6.13;;;2.88;;
55202;SDS011;41077;52.956;6.796;2023-06-14T08:29:15;7.32;;;2.53;;
55202;SDS011;41077;52.956;6.796;2023-06-14T08:31:43;5.40;;;2.40;;
55202;SDS011;41077;52.956;6.796;2023-06-14T08:34:09;3.83;;;2.20;;
55202;SDS011;41077;52.956;6.796;2023-06-14T08:36:35;8.15;;;2.40;;
55202;SDS011;41077;52.956;6.796;2023-06-14T08:39:01;4.80;;;2.35;;
55202;SDS011;41077;52.956;6.796;2023-06-14T08:41:27;7.38;;;2.53;;
55202;SDS011;41077;52.956;6.796;2023-06-14T08:43:54;5.30;;;2.08;;
55202;SDS011;41077;52.956;6.796;2023-06-14T08:46:21;12.48;;;2.38;;
55202;SDS011;41077;52.956;6.796;2023-06-14T08:48:52;8.13;;;2.30;;
55202;SDS011;41077;52.956;6.796;2023-06-14T08:51:22;3.13;;;2.00;;
55202;SDS011;41077;52.956;6.796;2023-06-14T08:53:53;6.20;;;2.70;;
55202;SDS011;41077;52.956;6.796;2023-06-14T08:56:26;3.35;;;2.30;;
55202;SDS011;41077;52.956;6.796;2023-06-14T08:58:54;5.50;;;2.25;;
55202;SDS011;41077;52.956;6.796;2023-06-14T09:01:21;5.68;;;2.17;;
55202;SDS011;41077;52.956;6.796;2023-06-14T09:03:48;7.15;;;2.22;;
55202;SDS011;41077;52.956;6.796;2023-06-14T09:06:15;6.95;;;2.20;;
55202;SDS011;41077;52.956;6.796;2023-06-14T09:08:42;8.15;;;2.30;;
55202;SDS011;41077;52.956;6.796;2023-06-14T09:11:10;8.07;;;2.30;;
55202;SDS011;41077;52.956;6.796;2023-06-14T09:13:37;2.97;;;1.92;;
55202;SDS011;41077;52.956;6.796;2023-06-14T09:16:04;7.03;;;2.03;;
55202;SDS011;41077;52.956;6.796;2023-06-14T09:18:37;7.00;;;2.20;;
55202;SDS011;41077;52.956;6.796;2023-06-14T09:21:08;12.73;;;3.58;;
55202;SDS011;41077;52.956;6.796;2023-06-14T09:23:40;3.63;;;2.20;;
55202;SDS011;41077;52.956;6.796;2023-06-14T09:26:11;7.22;;;1.80;;
55202;SDS011;41077;52.956;6.796;2023-06-14T09:28:41;4.03;;;2.05;;
55202;SDS011;41077;52.956;6.796;2023-06-14T09:31:14;7.80;;;1.90;;
55202;SDS011;41077;52.956;6.796;2023-06-14T09:33:47;4.55;;;1.80;;
55202;SDS011;41077;52.956;6.796;2023-06-14T09:36:14;6.30;;;2.03;;
55202;SDS011;41077;52.956;6.796;2023-06-14T09:38:42;6.47;;;2.25;;
55202;SDS011;41077;52.956;6.796;2023-06-14T09:41:21;2.90;;;1.40;;
55202;SDS011;41077;52.956;6.796;2023-06-14T09:43:57;2.58;;;1.60;;
55202;SDS011;41077;52.956;6.796;2023-06-14T09:46:26;3.90;;;1.50;;
55202;SDS011;41077;52.956;6.796;2023-06-14T09:48:52;2.97;;;1.58;;
55202;SDS011;41077;52.956;6.796;2023-06-14T09:51:18;3.45;;;1.70;;
55202;SDS011;41077;52.956;6.796;2023-06-14T09:53:47;13.35;;;1.80;;
55202;SDS011;41077;52.956;6.796;2023-06-14T09:56:16;4.70;;;1.95;;
55202;SDS011;41077;52.956;6.796;2023-06-14T09:58:47;2.47;;;1.48;;
55202;SDS011;41077;52.956;6.796;2023-06-14T10:01:15;5.05;;;1.92;;
55202;SDS011;41077;52.956;6.796;2023-06-14T10:03:42;4.82;;;1.65;;
55202;SDS011;41077;52.956;6.796;2023-06-14T10:06:09;4.50;;;1.40;;
55202;SDS011;41077;52.956;6.796;2023-06-14T10:08:35;2.97;;;1.50;;
55202;SDS011;41077;52.956;6.796;2023-06-14T10:11:02;5.85;;;1.70;;
55202;SDS011;41077;52.956;6.796;2023-06-14T10:13:28;6.25;;;1.35;;
55202;SDS011;41077;52.956;6.796;2023-06-14T10:18:49;2.70;;;1.40;;
55202;SDS011;41077;52.956;6.796;2023-06-14T10:23:59;3.42;;;1.13;;
55202;SDS011;41077;52.956;6.796;2023-06-14T10:26:30;5.10;;;1.27;;
55202;SDS011;41077;52.956;6.796;2023-06-14T10:29:16;5.82;;;1.25;;
55202;SDS011;41077;52.956;6.796;2023-06-14T10:31:45;6.13;;;1.58;;
55202;SDS011;41077;52.956;6.796;2023-06-14T10:34:12;3.65;;;1.48;;
55202;SDS011;41077;52.956;6.796;2023-06-14T10:39:42;3.60;;;1.25;;
55202;SDS011;41077;52.956;6.796;2023-06-14T10:42:11;7.68;;;1.42;;
55202;SDS011;41077;52.956;6.796;2023-06-14T10:44:55;3.78;;;1.38;;
55202;SDS011;41077;52.956;6.796;2023-06-14T10:52:28;5.28;;;1.38;;
55202;SDS011;41077;52.956;6.796;2023-06-14T10:57:50;2.25;;;1.27;;
55202;SDS011;41077;52.956;6.796;2023-06-14T11:00:18;3.13;;;1.42;;
55202;SDS011;41077;52.956;6.796;2023-06-14T11:08:27;6.28;;;1.40;;
55202;SDS011;41077;52.956;6.796;2023-06-14T11:10:59;7.80;;;1.35;;
55202;SDS011;41077;52.956;6.796;2023-06-14T11:13:25;7.38;;;1.58;;
55202;SDS011;41077;52.956;6.796;2023-06-14T11:15:51;3.00;;;1.50;;
55202;SDS011;41077;52.956;6.796;2023-06-14T11:18:22;3.95;;;1.48;;
55202;SDS011;41077;52.956;6.796;2023-06-14T11:20:50;4.05;;;1.30;;
55202;SDS011;41077;52.956;6.796;2023-06-14T11:23:16;5.97;;;1.63;;
55202;SDS011;41077;52.956;6.796;2023-06-14T11:25:41;6.78;;;1.48;;
55202;SDS011;41077;52.956;6.796;2023-06-14T11:28:07;3.20;;;1.45;;
55202;SDS011;41077;52.956;6.796;2023-06-14T11:30:33;5.43;;;1.60;;
55202;SDS011;41077;52.956;6.796;2023-06-14T11:32:58;2.92;;;1.38;;
55202;SDS011;41077;52.956;6.796;2023-06-14T11:35:25;1.83;;;1.42;;
55202;SDS011;41077;52.956;6.796;2023-06-14T11:37:57;5.95;;;1.83;;
55202;SDS011;41077;52.956;6.796;2023-06-14T11:40:24;6.55;;;1.92;;
55202;SDS011;41077;52.956;6.796;2023-06-14T11:42:51;5.43;;;1.75;;
55202;SDS011;41077;52.956;6.796;2023-06-14T11:45:26;5.28;;;1.73;;
55202;SDS011;41077;52.956;6.796;2023-06-14T11:47:54;4.85;;;1.90;;
55202;SDS011;41077;52.956;6.796;2023-06-14T11:50:23;1.40;;;1.30;;
55202;SDS011;41077;52.956;6.796;2023-06-14T11:52:53;3.75;;;1.83;;
55202;SDS011;41077;52.956;6.796;2023-06-14T11:57:50;2.70;;;1.20;;
55202;SDS011;41077;52.956;6.796;2023-06-14T12:00:18;4.32;;;1.30;;
55202;SDS011;41077;52.956;6.796;2023-06-14T12:02:53;4.95;;;1.30;;
55202;SDS011;41077;52.956;6.796;2023-06-14T12:07:47;3.70;;;1.60;;
55202;SDS011;41077;52.956;6.796;2023-06-14T12:10:13;4.90;;;1.50;;
55202;SDS011;41077;52.956;6.796;2023-06-14T12:12:40;2.50;;;1.27;;
55202;SDS011;41077;52.956;6.796;2023-06-14T12:15:08;4.05;;;1.30;;
55202;SDS011;41077;52.956;6.796;2023-06-14T12:17:36;4.55;;;1.40;;
55202;SDS011;41077;52.956;6.796;2023-06-14T12:20:10;2.88;;;1.10;;
55202;SDS011;41077;52.956;6.796;2023-06-14T12:22:39;2.72;;;1.30;;
55202;SDS011;41077;52.956;6.796;2023-06-14T12:25:22;3.58;;;1.20;;
55202;SDS011;41077;52.956;6.796;2023-06-14T12:27:52;2.25;;;1.10;;
55202;SDS011;41077;52.956;6.796;2023-06-14T12:30:21;7.35;;;1.48;;
55202;SDS011;41077;52.956;6.796;2023-06-14T12:32:46;6.72;;;1.50;;
55202;SDS011;41077;52.956;6.796;2023-06-14T12:35:13;3.30;;;1.50;;
55202;SDS011;41077;52.956;6.796;2023-06-14T12:37:39;3.83;;;1.33;;
55202;SDS011;41077;52.956;6.796;2023-06-14T12:40:05;4.70;;;1.80;;
55202;SDS011;41077;52.956;6.796;2023-06-14T12:42:31;4.05;;;1.30;;
55202;SDS011;41077;52.956;6.796;2023-06-14T12:44:58;8.57;;;1.30;;
55202;SDS011;41077;52.956;6.796;2023-06-14T12:47:25;6.95;;;1.60;;
55202;SDS011;41077;52.956;6.796;2023-06-14T12:49:50;9.13;;;1.90;;
55202;SDS011;41077;52.956;6.796;2023-06-14T12:52:16;4.15;;;1.40;;
55202;SDS011;41077;52.956;6.796;2023-06-14T12:54:42;5.55;;;1.60;;
55202;SDS011;41077;52.956;6.796;2023-06-14T12:57:07;6.80;;;1.75;;
55202;SDS011;41077;52.956;6.796;2023-06-14T12:59:34;3.75;;;1.40;;
55202;SDS011;41077;52.956;6.796;2023-06-14T13:02:16;4.82;;;1.38;;
55202;SDS011;41077;52.956;6.796;2023-06-14T13:04:42;2.65;;;1.10;;
55202;SDS011;41077;52.956;6.796;2023-06-14T13:07:08;3.72;;;1.20;;
55202;SDS011;41077;52.956;6.796;2023-06-14T13:09:35;3.90;;;1.25;;
55202;SDS011;41077;52.956;6.796;2023-06-14T13:12:01;6.72;;;1.40;;
55202;SDS011;41077;52.956;6.796;2023-06-14T13:14:27;9.05;;;2.22;;
55202;SDS011;41077;52.956;6.796;2023-06-14T13:16:53;4.22;;;1.10;;
55202;SDS011;41077;52.956;6.796;2023-06-14T13:19:19;2.80;;;1.17;;
55202;SDS011;41077;52.956;6.796;2023-06-14T13:21:44;8.88;;;1.42;;
55202;SDS011;41077;52.956;6.796;2023-06-14T13:24:10;2.63;;;1.30;;
55202;SDS011;41077;52.956;6.796;2023-06-14T13:26:36;7.50;;;1.35;;
55202;SDS011;41077;52.956;6.796;2023-06-14T13:29:01;11.07;;;1.50;;
55202;SDS011;41077;52.956;6.796;2023-06-14T13:31:27;3.05;;;1.17;;
55202;SDS011;41077;52.956;6.796;2023-06-14T13:33:54;7.22;;;1.38;;
55202;SDS011;41077;52.956;6.796;2023-06-14T13:36:20;5.60;;;1.80;;
55202;SDS011;41077;52.956;6.796;2023-06-14T13:38:46;6.97;;;1.80;;
55202;SDS011;41077;52.956;6.796;2023-06-14T13:41:11;7.53;;;1.58;;
55202;SDS011;41077;52.956;6.796;2023-06-14T13:43:37;5.35;;;1.40;;
55202;SDS011;41077;52.956;6.796;2023-06-14T13:46:03;10.18;;;1.48;;
55202;SDS011;41077;52.956;6.796;2023-06-14T13:48:29;4.55;;;1.88;;
55202;SDS011;41077;52.956;6.796;2023-06-14T13:50:54;5.10;;;1.65;;
55202;SDS011;41077;52.956;6.796;2023-06-14T13:53:20;2.88;;;1.45;;
55202;SDS011;41077;52.956;6.796;2023-06-14T13:55:46;12.23;;;1.65;;
55202;SDS011;41077;52.956;6.796;2023-06-14T13:58:11;4.22;;;1.65;;
55202;SDS011;41077;52.956;6.796;2023-06-14T14:00:37;4.13;;;1.38;;
55202;SDS011;41077;52.956;6.796;2023-06-14T14:03:05;3.90;;;1.50;;
55202;SDS011;41077;52.956;6.796;2023-06-14T14:05:31;5.03;;;1.40;;
55202;SDS011;41077;52.956;6.796;2023-06-14T14:07:57;2.28;;;1.15;;
55202;SDS011;41077;52.956;6.796;2023-06-14T14:10:24;2.75;;;1.30;;
55202;SDS011;41077;52.956;6.796;2023-06-14T14:12:50;3.17;;;1.67;;
55202;SDS011;41077;52.956;6.796;2023-06-14T14:15:16;2.28;;;1.17;;
55202;SDS011;41077;52.956;6.796;2023-06-14T14:17:42;4.78;;;1.75;;
55202;SDS011;41077;52.956;6.796;2023-06-14T14:20:08;6.82;;;1.70;;
55202;SDS011;41077;52.956;6.796;2023-06-14T14:22:36;3.95;;;1.27;;
55202;SDS011;41077;52.956;6.796;2023-06-14T14:25:02;1.88;;;1.10;;
55202;SDS011;41077;52.956;6.796;2023-06-14T14:27:28;1.90;;;1.00;;
55202;SDS011;41077;52.956;6.796;2023-06-14T14:29:53;6.70;;;1.25;;
55202;SDS011;41077;52.956;6.796;2023-06-14T14:32:19;3.60;;;1.27;;
55202;SDS011;41077;52.956;6.796;2023-06-14T14:34:45;4.65;;;1.50;;
55202;SDS011;41077;52.956;6.796;2023-06-14T14:37:11;3.78;;;2.13;;
55202;SDS011;41077;52.956;6.796;2023-06-14T14:39:38;6.65;;;2.38;;
55202;SDS011;41077;52.956;6.796;2023-06-14T14:42:04;10.57;;;2.00;;
55202;SDS011;41077;52.956;6.796;2023-06-14T14:44:30;3.00;;;1.63;;
55202;SDS011;41077;52.956;6.796;2023-06-14T14:46:56;2.35;;;1.40;;
55202;SDS011;41077;52.956;6.796;2023-06-14T14:49:22;1.77;;;1.30;;
55202;SDS011;41077;52.956;6.796;2023-06-14T14:51:48;6.00;;;1.63;;
55202;SDS011;41077;52.956;6.796;2023-06-14T14:54:14;3.17;;;1.35;;
55202;SDS011;41077;52.956;6.796;2023-06-14T14:56:40;2.47;;;1.27;;
55202;SDS011;41077;52.956;6.796;2023-06-14T14:59:07;7.78;;;1.70;;
55202;SDS011;41077;52.956;6.796;2023-06-14T15:01:33;3.05;;;1.23;;
55202;SDS011;41077;52.956;6.796;2023-06-14T15:03:59;3.75;;;1.42;;
55202;SDS011;41077;52.956;6.796;2023-06-14T15:06:26;2.53;;;1.90;;
55202;SDS011;41077;52.956;6.796;2023-06-14T15:08:52;3.50;;;1.80;;
55202;SDS011;41077;52.956;6.796;2023-06-14T15:11:18;3.17;;;1.50;;
55202;SDS011;41077;52.956;6.796;2023-06-14T15:13:44;3.83;;;1.75;;
55202;SDS011;41077;52.956;6.796;2023-06-14T15:16:10;7.05;;;1.63;;
55202;SDS011;41077;52.956;6.796;2023-06-14T15:18:36;3.58;;;1.50;;
55202;SDS011;41077;52.956;6.796;2023-06-14T15:21:02;3.63;;;1.73;;